sensor_id;sensor_type;location;lat;lon;timestamp;temperature;humidity
9810;DHT22;4944;52.514;13.192;2022-09-27T00:01:27;14.00;99.90
9810;DHT22;4944;52.514;13.192;2022-09-27T00:03:54;14.00;99.90
9810;DHT22;4944;52.514;13.192;2022-09-27T00:06:24;14.00;99.90
9810;DHT22;4944;52.514;13.192;2022-09-27T00:08:51;14.00;99.90
9810;DHT22;4944;52.514;13.192;2022-09-27T00:11:23;14.00;99.90
9810;DHT22;4944;52.514;13.192;2022-09-27T00:13:50;14.00;99.90
9810;DHT22;4944;52.514;13.192;2022-09-27T00:16:17;14.00;99.90
9810;DHT22;4944;52.514;13.192;2022-09-27T00:18:46;14.00;99.90
9810;DHT22;4944;52.514;13.192;2022-09-27T00:21:13;14.00;99.90
9810;DHT22;4944;52.514;13.192;2022-09-27T00:23:40;13.90;99.90
9810;DHT22;4944;52.514;13.192;2022-09-27T00:26:09;13.90;99.90
9810;DHT22;4944;52.514;13.192;2022-09-27T00:28:37;13.90;99.90
9810;DHT22;4944;52.514;13.192;2022-09-27T00:31:04;13.90;99.90
9810;DHT22;4944;52.514;13.192;2022-09-27T00:33:36;13.90;99.90
9810;DHT22;4944;52.514;13.192;2022-09-27T00:36:05;13.90;99.90
9810;DHT22;4944;52.514;13.192;2022-09-27T00:38:32;13.90;99.90
9810;DHT22;4944;52.514;13.192;2022-09-27T00:40:59;13.90;99.90
9810;DHT22;4944;52.514;13.192;2022-09-27T00:43:33;13.90;99.90
9810;DHT22;4944;52.514;13.192;2022-09-27T00:46:08;13.90;99.90
9810;DHT22;4944;52.514;13.192;2022-09-27T00:48:35;13.90;99.90
9810;DHT22;4944;52.514;13.192;2022-09-27T00:51:05;13.90;99.90
9810;DHT22;4944;52.514;13.192;2022-09-27T00:53:37;13.90;99.90
9810;DHT22;4944;52.514;13.192;2022-09-27T00:56:09;13.80;99.90
9810;DHT22;4944;52.514;13.192;2022-09-27T00:58:42;13.90;99.90
9810;DHT22;4944;52.514;13.192;2022-09-27T01:01:10;13.80;99.90
9810;DHT22;4944;52.514;13.192;2022-09-27T01:03:43;13.80;99.90
9810;DHT22;4944;52.514;13.192;2022-09-27T01:06:13;13.80;99.90
9810;DHT22;4944;52.514;13.192;2022-09-27T01:08:41;13.80;99.90
9810;DHT22;4944;52.514;13.192;2022-09-27T01:11:20;13.80;99.90
9810;DHT22;4944;52.514;13.192;2022-09-27T01:14:03;13.80;99.90
9810;DHT22;4944;52.514;13.192;2022-09-27T01:16:39;13.80;99.90
9810;DHT22;4944;52.514;13.192;2022-09-27T01:19:16;13.80;99.90
9810;DHT22;4944;52.514;13.192;2022-09-27T01:21:55;13.80;99.90
9810;DHT22;4944;52.514;13.192;2022-09-27T01:24:59;13.80;99.90
9810;DHT22;4944;52.514;13.192;2022-09-27T01:30:41;13.80;99.90
9810;DHT22;4944;52.514;13.192;2022-09-27T01:33:21;13.80;99.90
9810;DHT22;4944;52.514;13.192;2022-09-27T01:36:04;13.80;99.90
9810;DHT22;4944;52.514;13.192;2022-09-27T01:38:38;13.80;99.90
9810;DHT22;4944;52.514;13.192;2022-09-27T01:41:14;13.80;99.90
9810;DHT22;4944;52.514;13.192;2022-09-27T01:43:46;13.80;99.90
9810;DHT22;4944;52.514;13.192;2022-09-27T01:46:20;13.70;99.90
9810;DHT22;4944;52.514;13.192;2022-09-27T01:48:49;13.80;99.90
9810;DHT22;4944;52.514;13.192;2022-09-27T01:51:18;13.80;99.90
9810;DHT22;4944;52.514;13.192;2022-09-27T01:53:49;13.80;99.90
9810;DHT22;4944;52.514;13.192;2022-09-27T01:56:21;13.80;99.90
9810;DHT22;4944;52.514;13.192;2022-09-27T01:58:55;13.80;99.90
9810;DHT22;4944;52.514;13.192;2022-09-27T02:01:26;13.80;99.90
9810;DHT22;4944;52.514;13.192;2022-09-27T02:03:55;13.80;99.90
9810;DHT22;4944;52.514;13.192;2022-09-27T02:06:28;13.80;99.90
9810;DHT22;4944;52.514;13.192;2022-09-27T02:08:59;13.80;99.90
9810;DHT22;4944;52.514;13.192;2022-09-27T02:11:27;13.80;99.90
9810;DHT22;4944;52.514;13.192;2022-09-27T02:13:58;13.80;99.90
9810;DHT22;4944;52.514;13.192;2022-09-27T02:16:34;13.70;99.90
9810;DHT22;4944;52.514;13.192;2022-09-27T02:19:08;13.80;99.90
9810;DHT22;4944;52.514;13.192;2022-09-27T02:21:40;13.80;99.90
9810;DHT22;4944;52.514;13.192;2022-09-27T02:24:10;13.70;99.90
9810;DHT22;4944;52.514;13.192;2022-09-27T02:26:41;13.80;99.90
9810;DHT22;4944;52.514;13.192;2022-09-27T02:29:10;13.70;99.90
9810;DHT22;4944;52.514;13.192;2022-09-27T02:31:40;13.80;99.90
9810;DHT22;4944;52.514;13.192;2022-09-27T02:34:11;13.70;99.90
9810;DHT22;4944;52.514;13.192;2022-09-27T02:36:39;13.70;99.90
9810;DHT22;4944;52.514;13.192;2022-09-27T02:39:07;13.80;99.90
9810;DHT22;4944;52.514;13.192;2022-09-27T02:41:34;13.80;99.90
9810;DHT22;4944;52.514;13.192;2022-09-27T02:44:04;13.80;99.90
9810;DHT22;4944;52.514;13.192;2022-09-27T02:46:46;13.80;99.90
9810;DHT22;4944;52.514;13.192;2022-09-27T02:49:28;13.80;99.90
9810;DHT22;4944;52.514;13.192;2022-09-27T02:52:06;13.80;99.90
9810;DHT22;4944;52.514;13.192;2022-09-27T02:54:39;13.80;99.90
9810;DHT22;4944;52.514;13.192;2022-09-27T02:57:21;13.80;99.90
9810;DHT22;4944;52.514;13.192;2022-09-27T02:59:56;13.80;99.90
9810;DHT22;4944;52.514;13.192;2022-09-27T03:02:31;13.80;99.90
9810;DHT22;4944;52.514;13.192;2022-09-27T03:05:02;13.80;99.90
9810;DHT22;4944;52.514;13.192;2022-09-27T03:07:31;13.80;99.90
9810;DHT22;4944;52.514;13.192;2022-09-27T03:09:57;13.80;99.90
9810;DHT22;4944;52.514;13.192;2022-09-27T03:12:24;13.80;99.90
9810;DHT22;4944;52.514;13.192;2022-09-27T03:14:52;13.80;99.90
9810;DHT22;4944;52.514;13.192;2022-09-27T03:17:19;13.80;99.90
9810;DHT22;4944;52.514;13.192;2022-09-27T03:19:48;13.80;99.90
9810;DHT22;4944;52.514;13.192;2022-09-27T03:22:15;13.80;99.90
9810;DHT22;4944;52.514;13.192;2022-09-27T03:24:42;13.80;99.90
9810;DHT22;4944;52.514;13.192;2022-09-27T03:27:11;13.80;99.90
9810;DHT22;4944;52.514;13.192;2022-09-27T03:29:38;13.80;99.90
9810;DHT22;4944;52.514;13.192;2022-09-27T03:32:05;13.80;99.90
9810;DHT22;4944;52.514;13.192;2022-09-27T03:34:31;13.80;99.90
9810;DHT22;4944;52.514;13.192;2022-09-27T03:37:00;13.70;99.90
9810;DHT22;4944;52.514;13.192;2022-09-27T03:39:26;13.70;99.90
9810;DHT22;4944;52.514;13.192;2022-09-27T03:41:53;13.70;99.90
9810;DHT22;4944;52.514;13.192;2022-09-27T03:44:20;13.70;99.90
9810;DHT22;4944;52.514;13.192;2022-09-27T03:46:47;13.60;99.90
9810;DHT22;4944;52.514;13.192;2022-09-27T03:49:14;13.70;99.90
9810;DHT22;4944;52.514;13.192;2022-09-27T03:51:40;13.70;99.90
9810;DHT22;4944;52.514;13.192;2022-09-27T03:54:09;13.60;99.90
9810;DHT22;4944;52.514;13.192;2022-09-27T03:56:36;13.60;99.90
9810;DHT22;4944;52.514;13.192;2022-09-27T03:59:03;13.60;99.90
9810;DHT22;4944;52.514;13.192;2022-09-27T04:01:29;13.60;99.90
9810;DHT22;4944;52.514;13.192;2022-09-27T04:03:56;13.50;99.90
9810;DHT22;4944;52.514;13.192;2022-09-27T04:06:24;13.50;99.90
9810;DHT22;4944;52.514;13.192;2022-09-27T04:08:51;13.40;99.90
9810;DHT22;4944;52.514;13.192;2022-09-27T04:11:20;13.50;99.90
9810;DHT22;4944;52.514;13.192;2022-09-27T04:13:47;13.50;99.90
9810;DHT22;4944;52.514;13.192;2022-09-27T04:16:14;13.50;99.90
9810;DHT22;4944;52.514;13.192;2022-09-27T04:18:41;13.40;99.90
9810;DHT22;4944;52.514;13.192;2022-09-27T04:21:08;13.40;99.90
9810;DHT22;4944;52.514;13.192;2022-09-27T04:23:35;13.40;99.90
9810;DHT22;4944;52.514;13.192;2022-09-27T04:26:02;13.40;99.90
9810;DHT22;4944;52.514;13.192;2022-09-27T04:28:30;13.40;99.90
9810;DHT22;4944;52.514;13.192;2022-09-27T04:30:57;13.40;99.90
9810;DHT22;4944;52.514;13.192;2022-09-27T04:33:24;13.40;99.90
9810;DHT22;4944;52.514;13.192;2022-09-27T04:35:51;13.40;99.90
9810;DHT22;4944;52.514;13.192;2022-09-27T04:38:35;13.30;99.90
9810;DHT22;4944;52.514;13.192;2022-09-27T04:41:02;13.30;99.90
9810;DHT22;4944;52.514;13.192;2022-09-27T04:43:30;13.30;99.90
9810;DHT22;4944;52.514;13.192;2022-09-27T04:45:57;13.30;99.90
9810;DHT22;4944;52.514;13.192;2022-09-27T04:48:24;13.20;99.90
9810;DHT22;4944;52.514;13.192;2022-09-27T04:50:55;13.20;99.90
9810;DHT22;4944;52.514;13.192;2022-09-27T04:53:22;13.20;99.90
9810;DHT22;4944;52.514;13.192;2022-09-27T04:55:51;13.20;99.90
9810;DHT22;4944;52.514;13.192;2022-09-27T04:58:18;13.20;99.90
9810;DHT22;4944;52.514;13.192;2022-09-27T05:00:47;13.20;99.90
9810;DHT22;4944;52.514;13.192;2022-09-27T05:03:14;13.10;99.90
9810;DHT22;4944;52.514;13.192;2022-09-27T05:05:41;13.10;99.90
9810;DHT22;4944;52.514;13.192;2022-09-27T05:08:08;13.10;99.90
9810;DHT22;4944;52.514;13.192;2022-09-27T05:10:35;13.10;99.90
9810;DHT22;4944;52.514;13.192;2022-09-27T05:13:02;13.10;99.90
9810;DHT22;4944;52.514;13.192;2022-09-27T05:15:29;13.10;99.90
9810;DHT22;4944;52.514;13.192;2022-09-27T05:17:57;13.00;99.90
9810;DHT22;4944;52.514;13.192;2022-09-27T05:20:24;13.00;99.90
9810;DHT22;4944;52.514;13.192;2022-09-27T05:22:51;13.00;99.90
9810;DHT22;4944;52.514;13.192;2022-09-27T05:25:18;13.00;99.90
9810;DHT22;4944;52.514;13.192;2022-09-27T05:27:45;12.90;99.90
9810;DHT22;4944;52.514;13.192;2022-09-27T05:30:12;13.00;99.90
9810;DHT22;4944;52.514;13.192;2022-09-27T05:32:41;12.90;99.90
9810;DHT22;4944;52.514;13.192;2022-09-27T05:35:11;12.90;99.90
9810;DHT22;4944;52.514;13.192;2022-09-27T05:37:38;12.90;99.90
9810;DHT22;4944;52.514;13.192;2022-09-27T05:40:06;12.90;99.90
9810;DHT22;4944;52.514;13.192;2022-09-27T05:42:33;12.90;99.90
9810;DHT22;4944;52.514;13.192;2022-09-27T05:45:00;12.90;99.90
9810;DHT22;4944;52.514;13.192;2022-09-27T05:47:27;12.80;99.90
9810;DHT22;4944;52.514;13.192;2022-09-27T05:49:54;12.80;99.90
9810;DHT22;4944;52.514;13.192;2022-09-27T05:52:22;12.80;99.90
9810;DHT22;4944;52.514;13.192;2022-09-27T05:54:49;12.80;99.90
9810;DHT22;4944;52.514;13.192;2022-09-27T05:57:16;12.80;99.90
9810;DHT22;4944;52.514;13.192;2022-09-27T05:59:43;12.80;99.90
9810;DHT22;4944;52.514;13.192;2022-09-27T06:02:10;12.80;99.90
9810;DHT22;4944;52.514;13.192;2022-09-27T06:04:37;12.80;99.90
9810;DHT22;4944;52.514;13.192;2022-09-27T06:07:04;12.80;99.90
9810;DHT22;4944;52.514;13.192;2022-09-27T06:09:32;12.70;99.90
9810;DHT22;4944;52.514;13.192;2022-09-27T06:11:58;12.70;99.90
9810;DHT22;4944;52.514;13.192;2022-09-27T06:14:27;12.70;99.90
9810;DHT22;4944;52.514;13.192;2022-09-27T06:16:54;12.80;99.90
9810;DHT22;4944;52.514;13.192;2022-09-27T06:19:21;12.80;99.90
9810;DHT22;4944;52.514;13.192;2022-09-27T06:21:48;12.80;99.90
9810;DHT22;4944;52.514;13.192;2022-09-27T06:24:15;12.80;99.90
9810;DHT22;4944;52.514;13.192;2022-09-27T06:26:43;12.80;99.90
9810;DHT22;4944;52.514;13.192;2022-09-27T06:29:10;12.80;99.90
9810;DHT22;4944;52.514;13.192;2022-09-27T06:31:37;12.80;99.90
9810;DHT22;4944;52.514;13.192;2022-09-27T06:34:04;12.80;99.90
9810;DHT22;4944;52.514;13.192;2022-09-27T06:36:33;12.80;99.90
9810;DHT22;4944;52.514;13.192;2022-09-27T06:39:00;12.90;99.90
9810;DHT22;4944;52.514;13.192;2022-09-27T06:41:27;12.80;99.90
9810;DHT22;4944;52.514;13.192;2022-09-27T06:43:55;12.80;99.90
9810;DHT22;4944;52.514;13.192;2022-09-27T06:46:22;12.90;99.90
9810;DHT22;4944;52.514;13.192;2022-09-27T06:48:49;12.80;99.90
9810;DHT22;4944;52.514;13.192;2022-09-27T06:51:15;12.80;99.90
9810;DHT22;4944;52.514;13.192;2022-09-27T06:53:42;12.80;99.90
9810;DHT22;4944;52.514;13.192;2022-09-27T06:56:09;12.80;99.90
9810;DHT22;4944;52.514;13.192;2022-09-27T06:58:36;12.80;99.90
9810;DHT22;4944;52.514;13.192;2022-09-27T07:01:22;12.80;99.90
9810;DHT22;4944;52.514;13.192;2022-09-27T07:03:52;12.80;99.90
9810;DHT22;4944;52.514;13.192;2022-09-27T07:06:21;12.80;99.90
9810;DHT22;4944;52.514;13.192;2022-09-27T07:08:49;12.80;99.90
9810;DHT22;4944;52.514;13.192;2022-09-27T07:11:17;12.80;99.90
9810;DHT22;4944;52.514;13.192;2022-09-27T07:13:45;12.80;99.90
9810;DHT22;4944;52.514;13.192;2022-09-27T07:16:12;12.80;99.90
9810;DHT22;4944;52.514;13.192;2022-09-27T07:18:41;12.80;99.90
9810;DHT22;4944;52.514;13.192;2022-09-27T07:21:08;12.80;99.90
9810;DHT22;4944;52.514;13.192;2022-09-27T07:23:37;12.80;99.90
9810;DHT22;4944;52.514;13.192;2022-09-27T07:26:04;12.80;99.90
9810;DHT22;4944;52.514;13.192;2022-09-27T07:28:32;12.80;99.90
9810;DHT22;4944;52.514;13.192;2022-09-27T07:31:00;12.80;99.90
9810;DHT22;4944;52.514;13.192;2022-09-27T07:33:28;12.80;99.90
9810;DHT22;4944;52.514;13.192;2022-09-27T07:35:56;12.80;99.90
9810;DHT22;4944;52.514;13.192;2022-09-27T07:38:23;12.80;99.90
9810;DHT22;4944;52.514;13.192;2022-09-27T07:40:50;12.90;99.90
9810;DHT22;4944;52.514;13.192;2022-09-27T07:43:17;12.90;99.90
9810;DHT22;4944;52.514;13.192;2022-09-27T07:45:44;12.90;99.90
9810;DHT22;4944;52.514;13.192;2022-09-27T07:48:13;12.90;99.90
9810;DHT22;4944;52.514;13.192;2022-09-27T07:50:40;12.90;99.90
9810;DHT22;4944;52.514;13.192;2022-09-27T07:53:08;12.90;99.90
9810;DHT22;4944;52.514;13.192;2022-09-27T07:55:37;12.90;99.90
9810;DHT22;4944;52.514;13.192;2022-09-27T07:58:05;12.90;99.90
9810;DHT22;4944;52.514;13.192;2022-09-27T08:00:33;12.90;99.90
9810;DHT22;4944;52.514;13.192;2022-09-27T08:03:03;12.90;99.90
9810;DHT22;4944;52.514;13.192;2022-09-27T08:05:32;12.90;99.90
9810;DHT22;4944;52.514;13.192;2022-09-27T08:07:59;12.90;99.90
9810;DHT22;4944;52.514;13.192;2022-09-27T08:10:28;12.90;99.90
9810;DHT22;4944;52.514;13.192;2022-09-27T08:12:56;13.00;99.90
9810;DHT22;4944;52.514;13.192;2022-09-27T08:15:23;12.90;99.90
9810;DHT22;4944;52.514;13.192;2022-09-27T08:17:49;12.90;99.90
9810;DHT22;4944;52.514;13.192;2022-09-27T08:20:16;12.90;99.90
9810;DHT22;4944;52.514;13.192;2022-09-27T08:22:43;13.00;99.90
9810;DHT22;4944;52.514;13.192;2022-09-27T08:25:10;13.00;99.90
9810;DHT22;4944;52.514;13.192;2022-09-27T08:27:39;13.00;99.90
9810;DHT22;4944;52.514;13.192;2022-09-27T08:30:07;12.90;99.90
9810;DHT22;4944;52.514;13.192;2022-09-27T08:32:34;12.90;99.90
9810;DHT22;4944;52.514;13.192;2022-09-27T08:35:02;13.00;99.90
9810;DHT22;4944;52.514;13.192;2022-09-27T08:37:31;12.90;99.90
9810;DHT22;4944;52.514;13.192;2022-09-27T08:39:58;13.00;99.90
9810;DHT22;4944;52.514;13.192;2022-09-27T08:42:33;13.00;99.90
9810;DHT22;4944;52.514;13.192;2022-09-27T08:45:10;13.00;99.90
9810;DHT22;4944;52.514;13.192;2022-09-27T08:47:44;13.00;99.90
9810;DHT22;4944;52.514;13.192;2022-09-27T08:50:21;13.00;99.90
9810;DHT22;4944;52.514;13.192;2022-09-27T08:52:52;13.10;99.90
9810;DHT22;4944;52.514;13.192;2022-09-27T08:55:26;13.10;99.90
9810;DHT22;4944;52.514;13.192;2022-09-27T08:57:56;13.10;99.90
9810;DHT22;4944;52.514;13.192;2022-09-27T09:00:25;13.10;99.90
9810;DHT22;4944;52.514;13.192;2022-09-27T09:02:54;13.10;99.90
9810;DHT22;4944;52.514;13.192;2022-09-27T09:05:26;13.10;99.90
9810;DHT22;4944;52.514;13.192;2022-09-27T09:08:04;13.10;99.90
9810;DHT22;4944;52.514;13.192;2022-09-27T09:10:47;13.10;99.90
9810;DHT22;4944;52.514;13.192;2022-09-27T09:13:44;13.10;99.90
9810;DHT22;4944;52.514;13.192;2022-09-27T09:16:21;13.20;99.90
9810;DHT22;4944;52.514;13.192;2022-09-27T09:19:06;13.20;99.90
9810;DHT22;4944;52.514;13.192;2022-09-27T09:21:43;13.20;99.90
9810;DHT22;4944;52.514;13.192;2022-09-27T09:24:29;13.20;99.90
9810;DHT22;4944;52.514;13.192;2022-09-27T09:27:02;13.30;99.90
9810;DHT22;4944;52.514;13.192;2022-09-27T09:29:46;13.30;99.90
9810;DHT22;4944;52.514;13.192;2022-09-27T09:32:26;13.40;99.90
9810;DHT22;4944;52.514;13.192;2022-09-27T09:34:58;13.40;99.90
9810;DHT22;4944;52.514;13.192;2022-09-27T09:37:34;13.40;99.90
9810;DHT22;4944;52.514;13.192;2022-09-27T09:40:04;13.50;99.90
9810;DHT22;4944;52.514;13.192;2022-09-27T09:42:36;13.50;99.90
9810;DHT22;4944;52.514;13.192;2022-09-27T09:45:12;13.50;99.90
9810;DHT22;4944;52.514;13.192;2022-09-27T09:47:44;13.50;99.90
9810;DHT22;4944;52.514;13.192;2022-09-27T09:50:16;13.50;99.90
9810;DHT22;4944;52.514;13.192;2022-09-27T09:52:46;13.50;99.90
9810;DHT22;4944;52.514;13.192;2022-09-27T09:55:18;13.60;99.90
9810;DHT22;4944;52.514;13.192;2022-09-27T09:57:53;13.60;99.90
9810;DHT22;4944;52.514;13.192;2022-09-27T10:00:22;13.60;99.90
9810;DHT22;4944;52.514;13.192;2022-09-27T10:02:52;13.60;99.90
9810;DHT22;4944;52.514;13.192;2022-09-27T10:05:22;13.60;99.90
9810;DHT22;4944;52.514;13.192;2022-09-27T10:07:51;13.70;99.90
9810;DHT22;4944;52.514;13.192;2022-09-27T10:10:22;13.70;99.90
9810;DHT22;4944;52.514;13.192;2022-09-27T10:12:49;13.70;99.90
9810;DHT22;4944;52.514;13.192;2022-09-27T10:15:18;13.80;99.90
9810;DHT22;4944;52.514;13.192;2022-09-27T10:17:48;13.90;99.90
9810;DHT22;4944;52.514;13.192;2022-09-27T10:20:30;14.00;99.90
9810;DHT22;4944;52.514;13.192;2022-09-27T10:23:03;14.00;99.90
9810;DHT22;4944;52.514;13.192;2022-09-27T10:25:47;14.10;99.90
9810;DHT22;4944;52.514;13.192;2022-09-27T10:28:30;14.00;99.90
9810;DHT22;4944;52.514;13.192;2022-09-27T10:31:01;14.00;99.90
9810;DHT22;4944;52.514;13.192;2022-09-27T10:33:30;14.00;99.90
9810;DHT22;4944;52.514;13.192;2022-09-27T10:35:59;14.00;99.90
9810;DHT22;4944;52.514;13.192;2022-09-27T10:38:29;14.00;99.90
9810;DHT22;4944;52.514;13.192;2022-09-27T10:40:57;14.00;99.90
9810;DHT22;4944;52.514;13.192;2022-09-27T10:43:29;14.10;99.90
9810;DHT22;4944;52.514;13.192;2022-09-27T10:46:04;14.00;99.90
9810;DHT22;4944;52.514;13.192;2022-09-27T10:48:32;14.00;99.90
9810;DHT22;4944;52.514;13.192;2022-09-27T10:51:02;14.00;99.90
9810;DHT22;4944;52.514;13.192;2022-09-27T10:53:31;14.00;99.90
9810;DHT22;4944;52.514;13.192;2022-09-27T10:56:00;14.10;99.90
9810;DHT22;4944;52.514;13.192;2022-09-27T10:58:29;14.10;99.90
9810;DHT22;4944;52.514;13.192;2022-09-27T11:00:58;14.20;99.90
9810;DHT22;4944;52.514;13.192;2022-09-27T11:03:28;14.30;99.90
9810;DHT22;4944;52.514;13.192;2022-09-27T11:05:56;14.40;99.90
9810;DHT22;4944;52.514;13.192;2022-09-27T11:08:29;14.40;99.90
9810;DHT22;4944;52.514;13.192;2022-09-27T11:11:15;14.50;99.90
9810;DHT22;4944;52.514;13.192;2022-09-27T11:13:58;14.50;99.90
9810;DHT22;4944;52.514;13.192;2022-09-27T11:16:38;14.60;99.90
9810;DHT22;4944;52.514;13.192;2022-09-27T11:19:17;14.60;99.90
9810;DHT22;4944;52.514;13.192;2022-09-27T11:21:52;14.60;99.90
9810;DHT22;4944;52.514;13.192;2022-09-27T11:24:47;14.50;99.90
9810;DHT22;4944;52.514;13.192;2022-09-27T11:27:22;14.50;99.90
9810;DHT22;4944;52.514;13.192;2022-09-27T11:30:04;14.00;99.90
9810;DHT22;4944;52.514;13.192;2022-09-27T11:35:32;12.80;99.90
9810;DHT22;4944;52.514;13.192;2022-09-27T11:38:14;12.60;99.90
9810;DHT22;4944;52.514;13.192;2022-09-27T11:41:06;12.20;99.90
9810;DHT22;4944;52.514;13.192;2022-09-27T11:43:47;12.00;99.90
9810;DHT22;4944;52.514;13.192;2022-09-27T11:46:23;12.00;99.90
9810;DHT22;4944;52.514;13.192;2022-09-27T11:49:16;12.00;99.90
9810;DHT22;4944;52.514;13.192;2022-09-27T11:52:00;12.20;99.90
9810;DHT22;4944;52.514;13.192;2022-09-27T11:54:48;12.10;99.90
9810;DHT22;4944;52.514;13.192;2022-09-27T11:57:22;12.20;99.90
9810;DHT22;4944;52.514;13.192;2022-09-27T12:00:13;12.30;99.90
9810;DHT22;4944;52.514;13.192;2022-09-27T12:03:02;12.40;99.90
9810;DHT22;4944;52.514;13.192;2022-09-27T12:05:37;12.40;99.90
9810;DHT22;4944;52.514;13.192;2022-09-27T12:08:26;12.50;99.90
9810;DHT22;4944;52.514;13.192;2022-09-27T12:10:59;12.60;99.90
9810;DHT22;4944;52.514;13.192;2022-09-27T12:13:33;12.60;99.90
9810;DHT22;4944;52.514;13.192;2022-09-27T12:16:01;12.60;99.90
9810;DHT22;4944;52.514;13.192;2022-09-27T12:18:31;12.50;99.90
9810;DHT22;4944;52.514;13.192;2022-09-27T12:21:00;12.60;99.90
9810;DHT22;4944;52.514;13.192;2022-09-27T12:23:35;12.60;99.90
9810;DHT22;4944;52.514;13.192;2022-09-27T12:26:05;12.60;99.90
9810;DHT22;4944;52.514;13.192;2022-09-27T12:28:39;12.80;99.90
9810;DHT22;4944;52.514;13.192;2022-09-27T12:31:15;12.80;99.90
9810;DHT22;4944;52.514;13.192;2022-09-27T12:33:47;12.80;99.90
9810;DHT22;4944;52.514;13.192;2022-09-27T12:36:17;12.80;99.90
9810;DHT22;4944;52.514;13.192;2022-09-27T12:38:52;12.90;99.90
9810;DHT22;4944;52.514;13.192;2022-09-27T12:41:22;12.80;99.90
9810;DHT22;4944;52.514;13.192;2022-09-27T12:43:51;12.80;99.90
9810;DHT22;4944;52.514;13.192;2022-09-27T12:46:23;12.90;99.90
9810;DHT22;4944;52.514;13.192;2022-09-27T12:49:01;13.10;99.90
9810;DHT22;4944;52.514;13.192;2022-09-27T12:51:33;13.40;99.90
9810;DHT22;4944;52.514;13.192;2022-09-27T12:54:19;13.50;99.90
9810;DHT22;4944;52.514;13.192;2022-09-27T12:56:55;13.50;99.90
9810;DHT22;4944;52.514;13.192;2022-09-27T12:59:43;13.40;99.90
9810;DHT22;4944;52.514;13.192;2022-09-27T13:02:25;13.30;99.90
9810;DHT22;4944;52.514;13.192;2022-09-27T13:05:18;13.40;99.90
9810;DHT22;4944;52.514;13.192;2022-09-27T13:07:55;13.40;99.90
9810;DHT22;4944;52.514;13.192;2022-09-27T13:10:39;13.30;99.90
9810;DHT22;4944;52.514;13.192;2022-09-27T13:13:10;13.30;99.90
9810;DHT22;4944;52.514;13.192;2022-09-27T13:15:41;13.30;99.90
9810;DHT22;4944;52.514;13.192;2022-09-27T13:18:29;13.10;99.90
9810;DHT22;4944;52.514;13.192;2022-09-27T13:20:57;12.90;99.90
9810;DHT22;4944;52.514;13.192;2022-09-27T13:23:57;13.00;99.90
9810;DHT22;4944;52.514;13.192;2022-09-27T13:26:47;13.00;99.90
9810;DHT22;4944;52.514;13.192;2022-09-27T13:29:30;12.90;99.90
9810;DHT22;4944;52.514;13.192;2022-09-27T13:32:21;13.00;99.90
9810;DHT22;4944;52.514;13.192;2022-09-27T13:34:51;13.00;99.90
9810;DHT22;4944;52.514;13.192;2022-09-27T13:37:47;13.20;99.90
9810;DHT22;4944;52.514;13.192;2022-09-27T13:40:30;13.30;99.90
9810;DHT22;4944;52.514;13.192;2022-09-27T13:43:14;13.40;99.90
9810;DHT22;4944;52.514;13.192;2022-09-27T13:45:50;13.50;99.90
9810;DHT22;4944;52.514;13.192;2022-09-27T13:48:26;13.40;99.90
9810;DHT22;4944;52.514;13.192;2022-09-27T13:51:00;13.30;99.90
9810;DHT22;4944;52.514;13.192;2022-09-27T13:53:30;13.20;99.90
9810;DHT22;4944;52.514;13.192;2022-09-27T13:55:58;13.20;99.90
9810;DHT22;4944;52.514;13.192;2022-09-27T13:58:49;13.10;99.90
9810;DHT22;4944;52.514;13.192;2022-09-27T14:01:25;12.90;99.90
9810;DHT22;4944;52.514;13.192;2022-09-27T14:03:55;12.80;99.90
9810;DHT22;4944;52.514;13.192;2022-09-27T14:06:28;12.90;99.90
9810;DHT22;4944;52.514;13.192;2022-09-27T14:08:57;12.80;99.90
9810;DHT22;4944;52.514;13.192;2022-09-27T14:11:26;12.80;99.90
9810;DHT22;4944;52.514;13.192;2022-09-27T14:13:55;13.00;99.90
9810;DHT22;4944;52.514;13.192;2022-09-27T14:16:22;13.10;99.90
9810;DHT22;4944;52.514;13.192;2022-09-27T14:18:54;13.20;99.90
9810;DHT22;4944;52.514;13.192;2022-09-27T14:21:29;13.40;99.90
9810;DHT22;4944;52.514;13.192;2022-09-27T14:24:23;13.30;99.90
9810;DHT22;4944;52.514;13.192;2022-09-27T14:27:03;13.20;99.90
9810;DHT22;4944;52.514;13.192;2022-09-27T14:29:32;13.30;99.90
9810;DHT22;4944;52.514;13.192;2022-09-27T14:32:07;13.40;99.90
9810;DHT22;4944;52.514;13.192;2022-09-27T14:34:36;13.60;99.90
9810;DHT22;4944;52.514;13.192;2022-09-27T14:37:04;13.80;99.90
9810;DHT22;4944;52.514;13.192;2022-09-27T14:39:53;13.80;99.90
9810;DHT22;4944;52.514;13.192;2022-09-27T14:42:23;13.60;99.90
9810;DHT22;4944;52.514;13.192;2022-09-27T14:44:51;13.40;99.90
9810;DHT22;4944;52.514;13.192;2022-09-27T14:47:19;13.40;99.90
9810;DHT22;4944;52.514;13.192;2022-09-27T14:49:48;13.30;99.90
9810;DHT22;4944;52.514;13.192;2022-09-27T14:52:17;13.10;99.90
9810;DHT22;4944;52.514;13.192;2022-09-27T14:54:58;13.10;99.90
9810;DHT22;4944;52.514;13.192;2022-09-27T14:57:27;13.10;99.90
9810;DHT22;4944;52.514;13.192;2022-09-27T14:59:54;13.10;99.90
9810;DHT22;4944;52.514;13.192;2022-09-27T15:02:23;13.10;99.90
9810;DHT22;4944;52.514;13.192;2022-09-27T15:04:52;13.20;99.90
9810;DHT22;4944;52.514;13.192;2022-09-27T15:07:20;13.10;99.90
9810;DHT22;4944;52.514;13.192;2022-09-27T15:09:48;13.00;99.90
9810;DHT22;4944;52.514;13.192;2022-09-27T15:12:22;13.00;99.90
9810;DHT22;4944;52.514;13.192;2022-09-27T15:14:52;13.00;99.90
9810;DHT22;4944;52.514;13.192;2022-09-27T15:17:20;12.90;99.90
9810;DHT22;4944;52.514;13.192;2022-09-27T15:20:00;13.00;99.90
9810;DHT22;4944;52.514;13.192;2022-09-27T15:22:40;13.00;99.90
9810;DHT22;4944;52.514;13.192;2022-09-27T15:25:18;13.10;99.90
9810;DHT22;4944;52.514;13.192;2022-09-27T15:27:47;13.10;99.90
9810;DHT22;4944;52.514;13.192;2022-09-27T15:30:17;13.10;99.90
9810;DHT22;4944;52.514;13.192;2022-09-27T15:32:48;13.00;99.90
9810;DHT22;4944;52.514;13.192;2022-09-27T15:35:21;12.90;99.90
9810;DHT22;4944;52.514;13.192;2022-09-27T15:37:48;12.90;99.90
9810;DHT22;4944;52.514;13.192;2022-09-27T15:43:32;12.80;99.90
9810;DHT22;4944;52.514;13.192;2022-09-27T15:46:02;12.60;99.90
9810;DHT22;4944;52.514;13.192;2022-09-27T15:48:30;12.40;99.90
9810;DHT22;4944;52.514;13.192;2022-09-27T15:50:59;12.20;99.90
9810;DHT22;4944;52.514;13.192;2022-09-27T15:53:43;12.00;99.90
9810;DHT22;4944;52.514;13.192;2022-09-27T15:56:13;12.00;99.90
9810;DHT22;4944;52.514;13.192;2022-09-27T15:58:40;11.90;99.90
9810;DHT22;4944;52.514;13.192;2022-09-27T16:01:18;11.80;99.90
9810;DHT22;4944;52.514;13.192;2022-09-27T16:03:48;11.80;99.90
9810;DHT22;4944;52.514;13.192;2022-09-27T16:06:16;11.80;99.90
9810;DHT22;4944;52.514;13.192;2022-09-27T16:08:44;11.80;99.90
9810;DHT22;4944;52.514;13.192;2022-09-27T16:11:14;11.90;99.90
9810;DHT22;4944;52.514;13.192;2022-09-27T16:13:41;11.90;99.90
9810;DHT22;4944;52.514;13.192;2022-09-27T16:16:15;11.80;99.90
9810;DHT22;4944;52.514;13.192;2022-09-27T16:18:43;11.80;99.90
9810;DHT22;4944;52.514;13.192;2022-09-27T16:21:10;11.80;99.90
9810;DHT22;4944;52.514;13.192;2022-09-27T16:23:39;11.80;99.90